Time;durP1;ratioP1;P1;durP2;ratioP2;P2;SDS_P1;SDS_P2;PMS_P1;PMS_P2;Temp;Humidity;BMP_temperature;BMP_pressure;BME280_temperature;BME280_humidity;BME280_pressure;Samples;Min_cycle;Max_cycle;Signal;HPM_P1;HPM_P2
2021/05/22 00:02:15;;;;;;;;;;;20.10;57.60;;;;;;5044918;28;19913;-70
2021/05/22 00:04:41;;;;;;;;;;;20.10;57.60;;;;;;5040609;28;19928;-68
2021/05/22 00:07:06;;;;;;;;;;;20.10;57.60;;;;;;5023589;28;20319;-68
2021/05/22 00:09:32;;;;;;;;;;;20.10;57.60;;;;;;5039889;28;19908;-71
2021/05/22 00:11:57;;;;;;;;;;;20.10;57.60;;;;;;5045034;28;19916;-68
2021/05/22 00:14:22;;;;;;;;;;;20.10;57.50;;;;;;5039712;28;19971;-68
2021/05/22 00:16:48;;;;;;;;;;;20.10;57.60;;;;;;5031079;28;20260;-69
2021/05/22 00:19:13;;;;;;;;;;;20.10;57.50;;;;;;5041461;28;19936;-67
2021/05/22 00:21:39;;;;;;;;;;;20.10;57.50;;;;;;5040455;28;19909;-69
2021/05/22 00:24:04;;;;;;;;;;;20.10;57.50;;;;;;5040608;28;19923;-69
2021/05/22 00:26:30;;;;;;;;;;;20.10;57.60;;;;;;5044693;28;20003;-70
2021/05/22 00:28:55;;;;;;;;;;;20.10;57.50;;;;;;5044521;28;19908;-71
2021/05/22 00:31:21;;;;;;;;;;;20.10;57.50;;;;;;5036852;28;19935;-71
2021/05/22 00:33:46;;;;;;;;;;;20.10;57.50;;;;;;5036414;28;19913;-70
2021/05/22 00:36:12;;;;;;;;;;;20.10;57.50;;;;;;5037142;28;19916;-71
2021/05/22 00:38:37;;;;;;;;;;;20.00;57.50;;;;;;5037982;28;19920;-69
2021/05/22 00:41:02;;;;;;;;;;;20.10;57.50;;;;;;5031208;28;20355;-71
2021/05/22 00:43:28;;;;;;;;;;;20.10;57.50;;;;;;5037142;28;19921;-68
2021/05/22 00:45:54;;;;;;;;;;;20.00;57.40;;;;;;5041985;28;19916;-68
2021/05/22 00:48:21;;;;;;;;;;;20.10;57.50;;;;;;5040847;28;19970;-68
2021/05/22 00:50:46;;;;;;;;;;;20.00;57.40;;;;;;5025308;28;20764;-68
2021/05/22 00:53:12;;;;;;;;;;;20.10;57.50;;;;;;5040173;28;19916;-71
2021/05/22 00:55:37;;;;;;;;;;;20.00;57.40;;;;;;5046164;28;19913;-68
2021/05/22 00:58:03;;;;;;;;;;;20.00;57.50;;;;;;5024767;28;19921;-68
2021/05/22 01:00:30;;;;;;;;;;;20.00;57.40;;;;;;5047763;28;19938;-66
2021/05/22 01:02:55;;;;;;;;;;;20.00;57.50;;;;;;5047744;28;19940;-68
2021/05/22 01:05:21;;;;;;;;;;;20.00;57.40;;;;;;5041826;28;20533;-68
2021/05/22 01:07:48;;;;;;;;;;;20.10;57.50;;;;;;5040112;28;19916;-69
2021/05/22 01:10:13;;;;;;;;;;;20.00;57.40;;;;;;5040770;28;19920;-67
2021/05/22 01:12:39;;;;;;;;;;;20.00;57.30;;;;;;5025378;28;19913;-68
2021/05/22 01:15:09;;;;;;;;;;;20.00;57.40;;;;;;5014806;28;19916;-68
2021/05/22 01:17:36;;;;;;;;;;;20.10;57.40;;;;;;5041778;28;19909;-70
2021/05/22 01:20:20;;;;;;;;;;;20.00;57.40;;;;;;5024633;28;19939;-68
2021/05/22 01:22:46;;;;;;;;;;;20.00;57.30;;;;;;5042428;28;20624;-67
2021/05/22 01:25:27;;;;;;;;;;;20.00;57.30;;;;;;5046837;28;19920;-69
2021/05/22 01:27:53;;;;;;;;;;;20.00;57.50;;;;;;5044381;28;20584;-67
2021/05/22 01:30:18;;;;;;;;;;;20.00;57.30;;;;;;5026029;28;19911;-67
2021/05/22 01:32:44;;;;;;;;;;;20.00;57.30;;;;;;5037487;28;21725;-69
2021/05/22 01:35:10;;;;;;;;;;;20.00;57.30;;;;;;5047403;28;19924;-67
2021/05/22 01:37:35;;;;;;;;;;;20.00;57.30;;;;;;5011842;28;19970;-68
2021/05/22 01:40:01;;;;;;;;;;;20.00;57.30;;;;;;5004783;28;20011;-68
2021/05/22 01:42:26;;;;;;;;;;;20.00;57.30;;;;;;5010275;28;19909;-68
2021/05/22 01:44:52;;;;;;;;;;;20.00;57.90;;;;;;5027896;28;19921;-67
2021/05/22 01:47:18;;;;;;;;;;;20.00;57.30;;;;;;5027867;28;19974;-67
2021/05/22 01:49:44;;;;;;;;;;;20.00;57.20;;;;;;5021181;28;20726;-67
2021/05/22 01:52:09;;;;;;;;;;;20.00;57.20;;;;;;5011012;28;19909;-68
2021/05/22 01:54:35;;;;;;;;;;;20.00;57.20;;;;;;5010460;28;20295;-69
2021/05/22 01:57:00;;;;;;;;;;;20.00;57.20;;;;;;5007101;28;19923;-69
2021/05/22 01:59:25;;;;;;;;;;;20.00;57.20;;;;;;5042218;28;19917;-70
2021/05/22 02:01:51;;;;;;;;;;;20.00;57.20;;;;;;5004707;28;20406;-70
2021/05/22 02:04:20;;;;;;;;;;;20.00;57.20;;;;;;5024239;28;19917;-68
2021/05/22 02:06:47;;;;;;;;;;;20.00;57.30;;;;;;5022064;28;19955;-70
2021/05/22 02:09:14;;;;;;;;;;;20.00;57.20;;;;;;5002303;28;19913;-71
2021/05/22 02:11:40;;;;;;;;;;;20.00;57.20;;;;;;5019644;28;19967;-71
2021/05/22 02:14:06;;;;;;;;;;;20.00;57.20;;;;;;5028246;28;20466;-69
2021/05/22 02:16:32;;;;;;;;;;;20.00;57.20;;;;;;5011290;28;20011;-70
2021/05/22 02:18:58;;;;;;;;;;;20.00;57.50;;;;;;5003107;28;19957;-72
2021/05/22 02:21:23;;;;;;;;;;;20.00;57.20;;;;;;5026816;28;19960;-71
2021/05/22 02:23:49;;;;;;;;;;;20.00;57.20;;;;;;5028132;28;20292;-69
2021/05/22 02:26:14;;;;;;;;;;;20.00;57.20;;;;;;5025002;28;19912;-70
2021/05/22 02:28:40;;;;;;;;;;;20.00;57.20;;;;;;5045649;28;20326;-70
2021/05/22 02:31:05;;;;;;;;;;;20.00;57.20;;;;;;5045132;28;19966;-71
2021/05/22 02:33:31;;;;;;;;;;;20.00;57.20;;;;;;5037894;28;19917;-67
2021/05/22 02:35:56;;;;;;;;;;;20.00;57.10;;;;;;5035103;28;19959;-68
2021/05/22 02:38:23;;;;;;;;;;;20.00;57.20;;;;;;5017167;28;19978;-69
2021/05/22 02:40:49;;;;;;;;;;;20.00;57.20;;;;;;5043179;28;19944;-68
2021/05/22 02:43:14;;;;;;;;;;;20.00;57.10;;;;;;5023261;28;20002;-69
2021/05/22 02:45:41;;;;;;;;;;;19.90;57.00;;;;;;5021518;28;19913;-68
2021/05/22 02:48:08;;;;;;;;;;;20.00;57.10;;;;;;5027546;28;20595;-68
2021/05/22 02:50:34;;;;;;;;;;;20.00;57.10;;;;;;5038144;28;19913;-69
2021/05/22 02:52:59;;;;;;;;;;;20.00;57.10;;;;;;5038953;28;19962;-67
2021/05/22 02:55:25;;;;;;;;;;;20.00;57.10;;;;;;5034224;28;19913;-68
2021/05/22 02:57:50;;;;;;;;;;;19.90;57.10;;;;;;5026895;28;20357;-68
2021/05/22 03:00:16;;;;;;;;;;;20.00;57.10;;;;;;5022836;28;19908;-68
2021/05/22 03:02:41;;;;;;;;;;;19.90;57.00;;;;;;5039854;28;19924;-67
2021/05/22 03:05:07;;;;;;;;;;;20.00;57.00;;;;;;5013675;28;19917;-68
2021/05/22 03:07:33;;;;;;;;;;;20.00;57.10;;;;;;5025904;28;19905;-68
2021/05/22 03:09:58;;;;;;;;;;;19.90;57.00;;;;;;5028031;28;19966;-68
2021/05/22 03:12:24;;;;;;;;;;;20.00;57.00;;;;;;5039494;28;19913;-67
2021/05/22 03:14:50;;;;;;;;;;;19.90;56.90;;;;;;5018960;28;20355;-67
2021/05/22 03:17:16;;;;;;;;;;;20.00;57.00;;;;;;5044507;28;19912;-68
2021/05/22 03:19:41;;;;;;;;;;;19.90;57.00;;;;;;5038256;28;19915;-68
2021/05/22 03:22:07;;;;;;;;;;;19.90;57.00;;;;;;5041260;28;20271;-69
2021/05/22 03:24:32;;;;;;;;;;;20.00;56.90;;;;;;5043769;28;19909;-67
2021/05/22 03:26:58;;;;;;;;;;;19.90;57.60;;;;;;5043921;28;19909;-68
2021/05/22 03:29:23;;;;;;;;;;;20.00;56.90;;;;;;5023899;28;19931;-68
2021/05/22 03:31:49;;;;;;;;;;;19.90;56.90;;;;;;5044129;28;19916;-67
2021/05/22 03:34:14;;;;;;;;;;;19.90;56.90;;;;;;5038295;28;20241;-69
2021/05/22 03:36:40;;;;;;;;;;;19.90;56.90;;;;;;5020836;28;19929;-71
2021/05/22 03:39:05;;;;;;;;;;;19.90;57.00;;;;;;5043676;28;20090;-70
2021/05/22 03:41:30;;;;;;;;;;;19.90;56.90;;;;;;5045283;28;19944;-71
2021/05/22 03:43:56;;;;;;;;;;;19.90;56.90;;;;;;5030115;28;19927;-71
2021/05/22 03:46:21;;;;;;;;;;;19.90;56.90;;;;;;5043090;28;19904;-69
2021/05/22 03:48:47;;;;;;;;;;;19.90;57.00;;;;;;5040356;28;20375;-68
2021/05/22 03:51:12;;;;;;;;;;;19.90;56.90;;;;;;5044541;28;19905;-69
2021/05/22 03:53:38;;;;;;;;;;;19.90;56.90;;;;;;5044001;28;19920;-68
2021/05/22 03:56:03;;;;;;;;;;;19.90;56.90;;;;;;5039281;28;19928;-67
2021/05/22 03:58:29;;;;;;;;;;;19.90;56.80;;;;;;5040136;28;19917;-71
2021/05/22 04:00:54;;;;;;;;;;;19.90;56.80;;;;;;5040567;28;19905;-67
2021/05/22 04:03:20;;;;;;;;;;;19.90;56.90;;;;;;5042641;28;21343;-68
2021/05/22 04:05:45;;;;;;;;;;;19.90;56.80;;;;;;5040611;28;19982;-68
2021/05/22 04:08:11;;;;;;;;;;;19.90;56.70;;;;;;5041612;28;19905;-66
2021/05/22 04:10:37;;;;;;;;;;;19.90;56.70;;;;;;5040521;28;19909;-66
2021/05/22 04:13:02;;;;;;;;;;;19.90;56.70;;;;;;5036912;28;19917;-69
2021/05/22 04:15:28;;;;;;;;;;;19.90;56.70;;;;;;5041799;28;20584;-67
2021/05/22 04:17:53;;;;;;;;;;;19.90;56.70;;;;;;5039954;28;19909;-68
2021/05/22 04:20:19;;;;;;;;;;;19.90;56.80;;;;;;5044238;28;19998;-70
2021/05/22 04:22:44;;;;;;;;;;;19.90;56.80;;;;;;5022648;28;20425;-68
2021/05/22 04:25:10;;;;;;;;;;;19.90;56.80;;;;;;5032862;28;19904;-68
2021/05/22 04:27:35;;;;;;;;;;;19.90;56.80;;;;;;5041906;28;19916;-69
2021/05/22 04:30:01;;;;;;;;;;;19.90;56.80;;;;;;5046797;28;19905;-68
2021/05/22 04:32:26;;;;;;;;;;;19.90;56.70;;;;;;5040879;28;19916;-68
2021/05/22 04:34:52;;;;;;;;;;;19.90;56.80;;;;;;5042303;28;20119;-70
2021/05/22 04:37:17;;;;;;;;;;;19.90;56.70;;;;;;5043807;28;19909;-69
2021/05/22 04:39:42;;;;;;;;;;;19.90;56.70;;;;;;5025986;28;20382;-69
2021/05/22 04:42:08;;;;;;;;;;;19.90;56.80;;;;;;5040854;28;19905;-69
2021/05/22 04:44:33;;;;;;;;;;;19.90;56.70;;;;;;5043429;28;19909;-69
2021/05/22 04:46:59;;;;;;;;;;;19.90;56.70;;;;;;5048410;28;19921;-68
2021/05/22 04:49:27;;;;;;;;;;;19.90;56.70;;;;;;5045184;28;20369;-67
2021/05/22 04:51:54;;;;;;;;;;;19.90;56.70;;;;;;5045335;28;19967;-69
2021/05/22 04:54:19;;;;;;;;;;;19.90;56.70;;;;;;5042446;28;19913;-70
2021/05/22 04:56:45;;;;;;;;;;;19.90;56.60;;;;;;5047229;28;19982;-67
2021/05/22 04:59:10;;;;;;;;;;;19.90;56.70;;;;;;5045650;28;19908;-67
2021/05/22 05:01:36;;;;;;;;;;;19.90;56.70;;;;;;5042278;28;19909;-70
2021/05/22 05:04:01;;;;;;;;;;;19.90;56.70;;;;;;5047645;28;19931;-67
2021/05/22 05:06:27;;;;;;;;;;;19.90;56.70;;;;;;5047449;28;19909;-68
2021/05/22 05:08:52;;;;;;;;;;;19.90;56.70;;;;;;5047413;28;19912;-69
2021/05/22 05:11:18;;;;;;;;;;;19.90;56.70;;;;;;5041592;28;20446;-69
2021/05/22 05:13:43;;;;;;;;;;;19.90;56.70;;;;;;5047359;28;19913;-68
2021/05/22 05:16:09;;;;;;;;;;;19.90;56.70;;;;;;5043287;28;20448;-67
2021/05/22 05:18:34;;;;;;;;;;;19.90;56.70;;;;;;5047073;28;19915;-67
2021/05/22 05:21:00;;;;;;;;;;;19.90;57.40;;;;;;5039691;28;19917;-68
2021/05/22 05:23:25;;;;;;;;;;;19.90;56.70;;;;;;5044699;28;19920;-68
2021/05/22 05:25:53;;;;;;;;;;;19.90;56.90;;;;;;5029491;28;20334;-68
2021/05/22 05:28:19;;;;;;;;;;;19.90;56.70;;;;;;5043334;28;19912;-69
2021/05/22 05:30:45;;;;;;;;;;;19.90;56.70;;;;;;5040705;28;19934;-67
2021/05/22 05:33:10;;;;;;;;;;;19.90;56.70;;;;;;5042280;28;19955;-69
2021/05/22 05:35:36;;;;;;;;;;;19.80;56.70;;;;;;5038764;28;19909;-68
2021/05/22 05:38:01;;;;;;;;;;;19.90;56.70;;;;;;5047654;28;20380;-68
2021/05/22 05:40:27;;;;;;;;;;;19.90;56.70;;;;;;5036389;28;19909;-68
2021/05/22 05:42:52;;;;;;;;;;;19.90;56.70;;;;;;5045915;28;20402;-68
2021/05/22 05:45:17;;;;;;;;;;;19.90;56.70;;;;;;5033054;28;19916;-68
2021/05/22 05:47:43;;;;;;;;;;;19.90;56.70;;;;;;5044677;28;19913;-68
2021/05/22 05:50:09;;;;;;;;;;;19.90;56.70;;;;;;5027341;28;19923;-69
2021/05/22 05:52:34;;;;;;;;;;;19.90;56.70;;;;;;5041943;28;20419;-69
2021/05/22 05:54:59;;;;;;;;;;;20.00;57.30;;;;;;5041597;28;19916;-67
2021/05/22 05:57:25;;;;;;;;;;;20.00;56.70;;;;;;5021172;28;19979;-70
2021/05/22 05:59:50;;;;;;;;;;;19.90;56.70;;;;;;5044142;28;19916;-69
2021/05/22 06:02:16;;;;;;;;;;;20.00;56.80;;;;;;5044425;28;19912;-69
2021/05/22 06:04:41;;;;;;;;;;;19.90;56.80;;;;;;5036428;28;19975;-67
2021/05/22 06:07:07;;;;;;;;;;;20.00;57.00;;;;;;5043125;28;19913;-68
2021/05/22 06:09:32;;;;;;;;;;;20.00;57.00;;;;;;5035058;28;20012;-67
2021/05/22 06:11:58;;;;;;;;;;;20.00;57.10;;;;;;5041370;28;19921;-67
2021/05/22 06:14:32;;;;;;;;;;;20.00;57.20;;;;;;5043963;28;19923;-68
2021/05/22 06:16:58;;;;;;;;;;;20.00;57.30;;;;;;5044337;28;20327;-68
2021/05/22 06:19:23;;;;;;;;;;;20.00;57.50;;;;;;5041891;28;19931;-72
2021/05/22 06:21:49;;;;;;;;;;;20.00;57.70;;;;;;5032700;28;19913;-66
2021/05/22 06:24:14;;;;;;;;;;;20.00;57.80;;;;;;5038723;28;19917;-68
2021/05/22 06:26:40;;;;;;;;;;;20.00;57.90;;;;;;5042581;28;19925;-68
2021/05/22 06:29:05;;;;;;;;;;;20.00;57.90;;;;;;5039222;28;19913;-66
2021/05/22 06:31:31;;;;;;;;;;;20.00;58.00;;;;;;5040247;28;20429;-68
2021/05/22 06:33:56;;;;;;;;;;;20.00;58.00;;;;;;5038972;28;19936;-66
2021/05/22 06:36:22;;;;;;;;;;;20.00;58.10;;;;;;5039219;28;19916;-66
2021/05/22 06:38:47;;;;;;;;;;;20.00;58.10;;;;;;5039344;28;19920;-67
2021/05/22 06:41:13;;;;;;;;;;;20.00;58.20;;;;;;5041236;28;20684;-69
2021/05/22 06:43:38;;;;;;;;;;;19.90;58.20;;;;;;5042009;28;19961;-67
2021/05/22 06:46:46;;;;;;;;;;;19.90;58.70;;;;;;5041865;28;19959;-67
2021/05/22 06:48:55;;;;;;;;;;;19.90;59.00;;;;;;5035234;28;20406;-67
2021/05/22 06:51:20;;;;;;;;;;;19.80;59.20;;;;;;5034750;28;19913;-67
2021/05/22 06:53:46;;;;;;;;;;;19.80;59.50;;;;;;5043086;28;19924;-67
2021/05/22 06:56:11;;;;;;;;;;;19.90;59.50;;;;;;5033493;28;20383;-67
2021/05/22 06:58:36;;;;;;;;;;;19.80;59.50;;;;;;5035929;28;19913;-67
2021/05/22 07:01:02;;;;;;;;;;;19.80;59.30;;;;;;5035550;28;19913;-67
2021/05/22 07:03:27;;;;;;;;;;;19.90;59.40;;;;;;5036892;28;19920;-67
2021/05/22 07:05:53;;;;;;;;;;;19.90;59.40;;;;;;5030622;28;19932;-67
2021/05/22 07:08:18;;;;;;;;;;;19.90;59.30;;;;;;5020938;28;19923;-66
2021/05/22 07:10:44;;;;;;;;;;;19.90;59.20;;;;;;5017075;28;19917;-65
2021/05/22 07:13:09;;;;;;;;;;;19.90;59.10;;;;;;5039470;28;19921;-66
2021/05/22 07:15:35;;;;;;;;;;;19.90;59.00;;;;;;5039363;28;19927;-69
2021/05/22 07:18:00;;;;;;;;;;;19.90;58.80;;;;;;5040594;28;19917;-67
2021/05/22 07:20:26;;;;;;;;;;;19.90;58.70;;;;;;5044029;28;20396;-67
2021/05/22 07:22:54;;;;;;;;;;;19.90;58.50;;;;;;5033670;28;19935;-67
2021/05/22 07:25:19;;;;;;;;;;;19.90;58.40;;;;;;5041463;28;20009;-67
2021/05/22 07:27:45;;;;;;;;;;;19.90;58.40;;;;;;5039439;28;20431;-69
2021/05/22 07:30:11;;;;;;;;;;;20.00;58.20;;;;;;5042846;28;19983;-69
2021/05/22 07:32:39;;;;;;;;;;;19.90;58.00;;;;;;5026549;28;20406;-68
2021/05/22 07:35:05;;;;;;;;;;;20.00;58.00;;;;;;5031316;28;19921;-67
2021/05/22 07:37:30;;;;;;;;;;;20.00;57.80;;;;;;5043172;28;19924;-66
2021/05/22 07:39:57;;;;;;;;;;;20.00;57.80;;;;;;5039931;28;19917;-67
2021/05/22 07:42:26;;;;;;;;;;;20.00;57.70;;;;;;5040535;28;19952;-67
2021/05/22 07:44:51;;;;;;;;;;;20.00;57.60;;;;;;5037582;28;19920;-68
2021/05/22 07:47:17;;;;;;;;;;;20.00;57.50;;;;;;5035546;28;20054;-67
2021/05/22 07:49:43;;;;;;;;;;;20.00;57.50;;;;;;5038899;28;19929;-66
2021/05/22 07:52:10;;;;;;;;;;;20.00;57.40;;;;;;5041940;28;19917;-67
2021/05/22 07:54:36;;;;;;;;;;;20.00;57.30;;;;;;5042572;28;19927;-67
2021/05/22 07:57:04;;;;;;;;;;;20.00;57.10;;;;;;5040290;28;19928;-68
2021/05/22 07:59:30;;;;;;;;;;;20.00;57.00;;;;;;5023508;28;19932;-69
2021/05/22 08:01:55;;;;;;;;;;;20.00;57.20;;;;;;5036098;28;20483;-67
2021/05/22 08:04:20;;;;;;;;;;;20.00;57.40;;;;;;5042238;28;19960;-68
2021/05/22 08:06:46;;;;;;;;;;;20.10;57.60;;;;;;5042434;28;19956;-68
2021/05/22 08:09:11;;;;;;;;;;;20.10;57.40;;;;;;5046930;28;20660;-67
2021/05/22 08:11:37;;;;;;;;;;;20.10;57.00;;;;;;5046796;28;20019;-67
2021/05/22 08:14:02;;;;;;;;;;;20.10;56.60;;;;;;5041123;28;19920;-68
2021/05/22 08:16:28;;;;;;;;;;;20.10;56.00;;;;;;5040535;28;19921;-66
2021/05/22 08:18:53;;;;;;;;;;;20.10;55.30;;;;;;5037922;28;20437;-67
2021/05/22 08:21:22;;;;;;;;;;;20.10;55.30;;;;;;5037854;28;19925;-67
2021/05/22 08:23:48;;;;;;;;;;;20.10;55.40;;;;;;5038763;28;19920;-68
2021/05/22 08:26:13;;;;;;;;;;;20.10;55.60;;;;;;5045545;28;19912;-67
2021/05/22 08:28:39;;;;;;;;;;;20.10;55.40;;;;;;5036934;28;19939;-67
2021/05/22 08:31:04;;;;;;;;;;;20.10;55.20;;;;;;5039284;28;19917;-67
2021/05/22 08:33:30;;;;;;;;;;;20.10;54.80;;;;;;5044278;28;19933;-67
2021/05/22 08:35:55;;;;;;;;;;;20.10;54.70;;;;;;5040145;28;19917;-70
2021/05/22 08:38:20;;;;;;;;;;;20.10;54.60;;;;;;5037914;28;20035;-67
2021/05/22 08:40:46;;;;;;;;;;;20.10;54.40;;;;;;5042039;28;19916;-69
2021/05/22 08:43:11;;;;;;;;;;;20.20;54.20;;;;;;5042702;28;20008;-70
2021/05/22 08:45:37;;;;;;;;;;;20.10;53.90;;;;;;5023326;28;19924;-67
2021/05/22 08:48:02;;;;;;;;;;;20.10;53.60;;;;;;5024652;28;19924;-67
2021/05/22 08:50:28;;;;;;;;;;;20.10;53.10;;;;;;5038245;22;19980;-66
2021/05/22 08:52:56;;;;;;;;;;;20.10;52.90;;;;;;4998744;28;19921;-67
2021/05/22 08:55:22;;;;;;;;;;;20.10;52.60;;;;;;4984358;28;19933;-67
2021/05/22 08:57:47;;;;;;;;;;;20.20;52.50;;;;;;5004229;28;19917;-67
2021/05/22 09:00:15;;;;;;;;;;;20.10;52.20;;;;;;5003661;28;20012;-67
2021/05/22 09:02:40;;;;;;;;;;;20.20;52.00;;;;;;5005140;28;20004;-67
2021/05/22 09:05:09;;;;;;;;;;;20.10;52.10;;;;;;5002029;28;20103;-67
2021/05/22 09:07:35;;;;;;;;;;;20.10;51.40;;;;;;5005707;28;19921;-67
2021/05/22 09:10:20;;;;;;;;;;;20.10;51.60;;;;;;4988723;28;20401;-67
2021/05/22 09:12:46;;;;;;;;;;;20.10;51.30;;;;;;4998569;28;20546;-67
2021/05/22 09:15:16;;;;;;;;;;;20.10;51.10;;;;;;5000767;28;19933;-67
2021/05/22 09:17:57;;;;;;;;;;;20.10;51.20;;;;;;5005786;28;19929;-67
2021/05/22 09:20:23;;;;;;;;;;;20.10;50.90;;;;;;5004119;28;19925;-67
2021/05/22 09:23:14;;;;;;;;;;;20.10;50.70;;;;;;4998483;28;20015;-66
2021/05/22 09:25:41;;;;;;;;;;;20.10;50.80;;;;;;4982050;28;19989;-66
2021/05/22 09:28:07;;;;;;;;;;;20.10;50.50;;;;;;4957222;28;19968;-66
2021/05/22 09:30:32;;;;;;;;;;;20.10;50.60;;;;;;4985573;28;19925;-66
2021/05/22 09:32:58;;;;;;;;;;;20.20;50.30;;;;;;4990706;28;19918;-66
2021/05/22 09:35:23;;;;;;;;;;;20.20;49.90;;;;;;4989873;28;19918;-67
2021/05/22 09:37:49;;;;;;;;;;;20.10;49.80;;;;;;5003636;28;20077;-67
2021/05/22 09:40:15;;;;;;;;;;;20.10;49.60;;;;;;4995141;28;19925;-66
2021/05/22 09:42:41;;;;;;;;;;;20.10;49.60;;;;;;4990201;28;19932;-66
2021/05/22 09:45:20;;;;;;;;;;;20.10;49.50;;;;;;4990544;28;19918;-66
2021/05/22 09:47:45;;;;;;;;;;;20.10;49.60;;;;;;4994593;28;19921;-67
2021/05/22 09:50:26;;;;;;;;;;;20.10;49.50;;;;;;5000448;28;19978;-67
2021/05/22 09:52:52;;;;;;;;;;;20.10;49.40;;;;;;5004724;28;20008;-66
2021/05/22 09:55:17;;;;;;;;;;;20.10;49.40;;;;;;4995996;28;19917;-67
2021/05/22 09:57:44;;;;;;;;;;;20.10;49.30;;;;;;4996033;28;19918;-67
2021/05/22 10:00:11;;;;;;;;;;;20.10;49.20;;;;;;5003226;28;20475;-66
2021/05/22 10:02:39;;;;;;;;;;;20.10;49.30;;;;;;4994126;28;20013;-66
2021/05/22 10:05:11;;;;;;;;;;;20.10;49.20;;;;;;4999466;28;19926;-67
2021/05/22 10:07:37;;;;;;;;;;;20.10;49.50;;;;;;4992843;28;20448;-66
2021/05/22 10:10:03;;;;;;;;;;;20.10;49.10;;;;;;4999244;28;19924;-66
2021/05/22 10:12:28;;;;;;;;;;;20.10;49.00;;;;;;5002026;28;20305;-66
2021/05/22 10:14:53;;;;;;;;;;;20.10;48.90;;;;;;4987713;28;19957;-67
2021/05/22 10:17:19;;;;;;;;;;;20.10;48.90;;;;;;4990421;28;20435;-67
2021/05/22 10:19:45;;;;;;;;;;;20.10;48.40;;;;;;4987082;28;19925;-67
2021/05/22 10:22:10;;;;;;;;;;;20.10;48.70;;;;;;4985689;28;20282;-67
2021/05/22 10:24:36;;;;;;;;;;;20.10;48.40;;;;;;5000972;28;20052;-66
2021/05/22 10:27:01;;;;;;;;;;;20.00;48.60;;;;;;5002205;28;19921;-67
2021/05/22 10:29:29;;;;;;;;;;;20.00;48.90;;;;;;5002485;28;19925;-67
2021/05/22 10:31:54;;;;;;;;;;;20.00;49.00;;;;;;5002176;28;20588;-66
2021/05/22 10:34:20;;;;;;;;;;;20.00;48.80;;;;;;4999446;28;19925;-67
2021/05/22 10:36:46;;;;;;;;;;;20.00;48.80;;;;;;4986818;28;19970;-67
2021/05/22 10:39:30;;;;;;;;;;;20.00;48.90;;;;;;4997020;28;19952;-66
2021/05/22 10:41:55;;;;;;;;;;;20.00;48.90;;;;;;4999557;28;20344;-67
2021/05/22 10:44:25;;;;;;;;;;;20.00;48.60;;;;;;5003913;28;19931;-66
2021/05/22 10:47:06;;;;;;;;;;;20.00;48.30;;;;;;5002309;28;19943;-67
2021/05/22 10:49:51;;;;;;;;;;;20.10;48.00;;;;;;5002337;28;19921;-67
2021/05/22 10:52:20;;;;;;;;;;;20.00;48.10;;;;;;4999599;28;19937;-67
2021/05/22 10:55:02;;;;;;;;;;;20.00;47.90;;;;;;4987729;28;19921;-67
2021/05/22 10:57:28;;;;;;;;;;;20.00;48.40;;;;;;4999552;28;19924;-68
2021/05/22 11:00:12;;;;;;;;;;;20.00;48.50;;;;;;4994204;28;19918;-66
2021/05/22 11:02:41;;;;;;;;;;;20.00;48.50;;;;;;4995345;28;19918;-67
2021/05/22 11:05:28;;;;;;;;;;;20.00;48.60;;;;;;4984741;28;19922;-68
2021/05/22 11:08:02;;;;;;;;;;;20.00;48.60;;;;;;4995586;28;20005;-64
2021/05/22 11:10:35;;;;;;;;;;;20.00;48.70;;;;;;5000774;28;19921;-66
2021/05/22 11:13:00;;;;;;;;;;;20.00;48.80;;;;;;4989165;28;20337;-66
2021/05/22 11:15:43;;;;;;;;;;;20.00;48.80;;;;;;4998131;28;19927;-65
2021/05/22 11:18:08;;;;;;;;;;;20.00;48.70;;;;;;5002364;28;19949;-67
2021/05/22 11:20:34;;;;;;;;;;;20.00;48.60;;;;;;5002899;28;19921;-66
2021/05/22 11:23:02;;;;;;;;;;;20.00;48.70;;;;;;4993678;28;19930;-66
2021/05/22 11:25:47;;;;;;;;;;;20.00;48.80;;;;;;4998557;28;20495;-66
2021/05/22 11:28:24;;;;;;;;;;;20.00;49.40;;;;;;4998525;28;20396;-66
2021/05/22 11:30:50;;;;;;;;;;;20.00;49.60;;;;;;5001780;28;19917;-66
2021/05/22 11:33:22;;;;;;;;;;;20.00;49.80;;;;;;4996730;28;19921;-66
2021/05/22 11:35:51;;;;;;;;;;;20.00;49.90;;;;;;4996765;28;20016;-66
2021/05/22 11:38:23;;;;;;;;;;;20.00;50.10;;;;;;4984231;28;19940;-66
2021/05/22 11:40:49;;;;;;;;;;;20.00;50.20;;;;;;4998638;28;19993;-66
2021/05/22 11:43:14;;;;;;;;;;;20.00;50.10;;;;;;5003146;28;20049;-66
2021/05/22 11:45:44;;;;;;;;;;;20.00;50.10;;;;;;5003420;28;19929;-66
2021/05/22 11:48:22;;;;;;;;;;;20.00;49.90;;;;;;4998834;28;20592;-66
2021/05/22 11:50:47;;;;;;;;;;;20.00;50.10;;;;;;4994398;28;19959;-66
2021/05/22 11:53:13;;;;;;;;;;;20.00;50.90;;;;;;5000915;28;19921;-66
2021/05/22 11:55:38;;;;;;;;;;;20.00;50.50;;;;;;4996557;28;20611;-65
2021/05/22 11:58:04;;;;;;;;;;;20.00;50.80;;;;;;4997546;28;20452;-66
2021/05/22 12:00:29;;;;;;;;;;;20.00;51.10;;;;;;4993473;28;19921;-65
2021/05/22 12:02:55;;;;;;;;;;;20.00;51.20;;;;;;4983514;28;19924;-65
2021/05/22 12:05:20;;;;;;;;;;;20.00;51.30;;;;;;4997302;28;19933;-66
2021/05/22 12:07:46;;;;;;;;;;;20.00;51.30;;;;;;4994997;28;19925;-67
2021/05/22 12:10:12;;;;;;;;;;;20.00;51.40;;;;;;4999757;28;20495;-68
2021/05/22 12:12:38;;;;;;;;;;;20.00;51.60;;;;;;5000959;28;19956;-65
2021/05/22 12:15:03;;;;;;;;;;;20.00;52.40;;;;;;4996786;28;20008;-65
2021/05/22 12:17:29;;;;;;;;;;;20.00;51.80;;;;;;5001573;28;19964;-65
2021/05/22 12:19:55;;;;;;;;;;;20.10;51.90;;;;;;4984280;28;19936;-65
2021/05/22 12:22:27;;;;;;;;;;;20.10;51.90;;;;;;4991760;28;19949;-64
2021/05/22 12:24:55;;;;;;;;;;;20.10;51.70;;;;;;4994462;28;19925;-64
2021/05/22 12:27:21;;;;;;;;;;;20.10;51.60;;;;;;4999586;28;19957;-64
2021/05/22 12:29:51;;;;;;;;;;;20.10;51.50;;;;;;5002445;28;19924;-65
2021/05/22 12:32:16;;;;;;;;;;;20.00;51.40;;;;;;4993733;28;19921;-66
2021/05/22 12:34:42;;;;;;;;;;;20.10;51.30;;;;;;4995739;28;19925;-66
2021/05/22 12:37:08;;;;;;;;;;;20.10;51.10;;;;;;4992526;28;19926;-64
2021/05/22 12:39:34;;;;;;;;;;;20.00;51.00;;;;;;4996063;28;19921;-64
2021/05/22 12:41:59;;;;;;;;;;;20.10;51.10;;;;;;5000117;28;19918;-65
2021/05/22 12:44:24;;;;;;;;;;;20.10;51.60;;;;;;4999970;28;19921;-64
2021/05/22 12:46:53;;;;;;;;;;;20.00;51.30;;;;;;4992271;28;19949;-64
2021/05/22 12:49:19;;;;;;;;;;;20.00;51.30;;;;;;5000521;28;19921;-65
2021/05/22 12:51:45;;;;;;;;;;;20.10;51.10;;;;;;5005176;28;19929;-65
2021/05/22 12:54:29;;;;;;;;;;;20.00;50.90;;;;;;5001641;28;19957;-64
2021/05/22 12:57:16;;;;;;;;;;;20.10;50.70;;;;;;4992797;28;19918;-65
2021/05/22 12:59:51;;;;;;;;;;;20.00;50.60;;;;;;4988466;28;20380;-65
2021/05/22 13:02:19;;;;;;;;;;;20.10;50.40;;;;;;5001501;28;19929;-64
2021/05/22 13:04:49;;;;;;;;;;;20.10;50.10;;;;;;5001716;28;19967;-64
2021/05/22 13:07:15;;;;;;;;;;;20.10;49.70;;;;;;5002415;28;19971;-64
2021/05/22 13:09:53;;;;;;;;;;;20.10;49.30;;;;;;5000028;28;19925;-64
2021/05/22 13:12:19;;;;;;;;;;;20.10;48.60;;;;;;5005868;28;19917;-64
2021/05/22 13:14:45;;;;;;;;;;;20.10;48.50;;;;;;5000540;28;19933;-64
2021/05/22 13:17:10;;;;;;;;;;;20.10;48.00;;;;;;5001508;28;19973;-65
2021/05/22 13:19:46;;;;;;;;;;;20.10;47.90;;;;;;4993741;28;19922;-65
2021/05/22 13:22:22;;;;;;;;;;;20.10;47.80;;;;;;4993654;28;19925;-64
2021/05/22 13:25:17;;;;;;;;;;;20.10;47.80;;;;;;5004144;28;19918;-64
2021/05/22 13:28:01;;;;;;;;;;;20.10;47.70;;;;;;4991424;28;19948;-65
2021/05/22 13:30:36;;;;;;;;;;;20.10;47.50;;;;;;4999889;28;19997;-64
2021/05/22 13:33:02;;;;;;;;;;;20.10;47.50;;;;;;5008888;28;19961;-64
2021/05/22 13:35:28;;;;;;;;;;;20.10;47.60;;;;;;4993495;28;20190;-65
2021/05/22 13:37:57;;;;;;;;;;;20.00;48.10;;;;;;5005776;28;19924;-64
2021/05/22 13:40:23;;;;;;;;;;;20.00;47.30;;;;;;4992298;28;19922;-65
2021/05/22 13:42:49;;;;;;;;;;;20.10;47.50;;;;;;4997556;28;19976;-65
2021/05/22 13:45:15;;;;;;;;;;;20.00;47.40;;;;;;4987702;28;20343;-65
2021/05/22 13:47:41;;;;;;;;;;;20.00;47.30;;;;;;4998423;28;19944;-65
2021/05/22 13:50:07;;;;;;;;;;;20.00;47.10;;;;;;4988508;28;20428;-65
2021/05/22 13:52:32;;;;;;;;;;;20.00;47.30;;;;;;5003125;28;19980;-65
2021/05/22 13:54:58;;;;;;;;;;;20.00;47.20;;;;;;4999645;28;19968;-65
2021/05/22 13:57:23;;;;;;;;;;;20.00;47.40;;;;;;5005160;28;19960;-64
2021/05/22 13:59:49;;;;;;;;;;;20.00;47.60;;;;;;4992818;28;20273;-64
2021/05/22 14:02:14;;;;;;;;;;;20.00;47.70;;;;;;4996447;28;19918;-64
2021/05/22 14:04:40;;;;;;;;;;;20.00;47.80;;;;;;4995504;28;19925;-64
2021/05/22 14:07:05;;;;;;;;;;;20.00;48.10;;;;;;5000350;28;19918;-64
2021/05/22 14:09:31;;;;;;;;;;;20.00;48.10;;;;;;5000372;28;20037;-65
2021/05/22 14:11:56;;;;;;;;;;;20.00;48.30;;;;;;4982496;28;20565;-64
2021/05/22 14:14:23;;;;;;;;;;;20.00;48.40;;;;;;4998292;28;19932;-65
2021/05/22 14:16:48;;;;;;;;;;;19.90;48.50;;;;;;5002311;28;20008;-65